createdAt,value
2022-11-20T00:01:41.542Z,100.00
2022-11-20T00:04:12.138Z,100.00
2022-11-20T00:06:40.989Z,100.00
2022-11-20T00:09:12.418Z,100.00
2022-11-20T00:11:42.252Z,100.00
2022-11-20T00:14:12.738Z,100.00
2022-11-20T00:16:41.304Z,100.00
2022-11-20T00:19:10.100Z,100.00
2022-11-20T00:21:38.878Z,100.00
2022-11-20T00:24:10.160Z,100.00
2022-11-20T00:26:39.258Z,100.00
2022-11-20T00:29:08.636Z,100.00
2022-11-20T00:31:38.688Z,100.00
2022-11-20T00:34:07.547Z,100.00
2022-11-20T00:36:36.512Z,100.00
2022-11-20T00:39:05.586Z,100.00
2022-11-20T00:41:34.442Z,100.00
2022-11-20T00:44:03.375Z,100.00
2022-11-20T00:46:31.943Z,100.00
2022-11-20T00:49:02.481Z,100.00
2022-11-20T00:51:31.325Z,100.00
2022-11-20T00:54:01.235Z,100.00
2022-11-20T00:56:30.366Z,100.00
2022-11-20T00:59:02.212Z,100.00
2022-11-20T01:01:31.476Z,100.00
2022-11-20T01:04:02.511Z,100.00
2022-11-20T01:06:32.363Z,100.00
2022-11-20T01:09:02.942Z,100.00
2022-11-20T01:11:33.723Z,100.00
2022-11-20T01:14:04.361Z,100.00
2022-11-20T01:16:34.177Z,100.00
2022-11-20T01:19:05.385Z,100.00
2022-11-20T01:21:35.802Z,100.00
2022-11-20T01:24:06.187Z,100.00
2022-11-20T01:26:35.619Z,100.00
2022-11-20T01:29:05.232Z,100.00
2022-11-20T01:31:35.253Z,100.00
2022-11-20T01:34:05.839Z,100.00
2022-11-20T01:36:36.575Z,100.00
2022-11-20T01:39:08.843Z,100.00
2022-11-20T01:41:55.144Z,100.00
2022-11-20T01:44:42.407Z,100.00
2022-11-20T01:47:12.068Z,100.00
2022-11-20T01:49:46.263Z,100.00
2022-11-20T01:52:17.486Z,100.00
2022-11-20T01:54:50.211Z,100.00
2022-11-20T01:57:19.783Z,100.00
2022-11-20T01:59:53.061Z,100.00
2022-11-20T02:02:22.263Z,100.00
2022-11-20T02:04:54.215Z,100.00
2022-11-20T02:07:23.686Z,100.00
2022-11-20T02:09:58.419Z,100.00
2022-11-20T02:12:44.959Z,100.00
2022-11-20T02:15:13.922Z,100.00
2022-11-20T02:17:42.746Z,100.00
2022-11-20T02:20:13.949Z,100.00
2022-11-20T02:22:50.272Z,100.00
2022-11-20T02:25:21.417Z,100.00
2022-11-20T02:27:50.394Z,100.00
2022-11-20T02:30:19.785Z,100.00
2022-11-20T02:32:48.552Z,100.00
2022-11-20T02:35:45.404Z,100.00
2022-11-20T02:38:13.915Z,100.00
2022-11-20T02:40:44.199Z,100.00
2022-11-20T02:43:12.939Z,100.00
2022-11-20T02:45:41.765Z,100.00
2022-11-20T02:48:10.561Z,100.00
2022-11-20T02:50:41.146Z,100.00
2022-11-20T02:53:10.019Z,100.00
2022-11-20T02:55:38.767Z,100.00
2022-11-20T02:58:09.000Z,100.00
2022-11-20T03:00:37.933Z,100.00
2022-11-20T03:03:06.879Z,100.00
2022-11-20T03:05:35.757Z,100.00
2022-11-20T03:08:04.506Z,100.00
2022-11-20T03:10:32.993Z,100.00
2022-11-20T03:13:01.730Z,100.00
2022-11-20T03:15:33.974Z,100.00
2022-11-20T03:18:02.831Z,100.00
2022-11-20T03:20:31.803Z,100.00
2022-11-20T03:23:00.690Z,100.00
2022-11-20T03:25:29.241Z,100.00
2022-11-20T03:27:58.566Z,100.00
2022-11-20T03:30:30.520Z,100.00
2022-11-20T03:33:01.264Z,100.00
2022-11-20T03:35:30.180Z,100.00
2022-11-20T03:38:00.165Z,100.00
2022-11-20T03:40:28.668Z,100.00
2022-11-20T03:42:57.501Z,100.00
2022-11-20T03:45:26.384Z,100.00
2022-11-20T03:47:55.191Z,100.00
2022-11-20T03:50:25.373Z,100.00
2022-11-20T03:52:53.889Z,100.00
2022-11-20T03:55:22.643Z,100.00
2022-11-20T03:57:51.582Z,100.00
2022-11-20T04:00:20.756Z,100.00
2022-11-20T04:02:49.701Z,100.00
2022-11-20T04:05:18.561Z,100.00
2022-11-20T04:07:48.501Z,100.00
2022-11-20T04:10:17.475Z,100.00
2022-11-20T04:12:46.413Z,100.00
2022-11-20T04:15:15.423Z,100.00
2022-11-20T04:17:44.347Z,100.00
2022-11-20T04:20:13.964Z,100.00
2022-11-20T04:22:42.598Z,100.00
2022-11-20T04:25:12.871Z,100.00
2022-11-20T04:27:41.759Z,100.00
2022-11-20T04:30:11.477Z,100.00
2022-11-20T04:32:40.364Z,100.00
2022-11-20T04:35:09.855Z,100.00
2022-11-20T04:37:38.403Z,100.00
2022-11-20T04:40:08.163Z,100.00
2022-11-20T04:42:38.383Z,100.00
2022-11-20T04:45:08.484Z,100.00
2022-11-20T04:47:37.524Z,100.00
2022-11-20T04:50:07.220Z,100.00
2022-11-20T04:52:35.773Z,100.00
2022-11-20T04:55:04.732Z,100.00
2022-11-20T04:57:33.535Z,100.00
2022-11-20T05:00:04.030Z,100.00
2022-11-20T05:02:33.692Z,100.00
2022-11-20T05:05:02.578Z,100.00
2022-11-20T05:07:31.342Z,100.00
2022-11-20T05:10:00.197Z,100.00
2022-11-20T05:12:29.779Z,100.00
2022-11-20T05:14:58.683Z,100.00
2022-11-20T05:17:28.998Z,100.00
2022-11-20T05:19:57.516Z,100.00
2022-11-20T05:22:26.377Z,100.00
2022-11-20T05:24:55.238Z,100.00
2022-11-20T05:27:24.119Z,100.00
2022-11-20T05:29:52.992Z,100.00
2022-11-20T05:32:21.940Z,100.00
2022-11-20T05:34:52.081Z,100.00
2022-11-20T05:37:20.975Z,100.00
2022-11-20T05:39:49.776Z,100.00
2022-11-20T05:42:33.956Z,100.00
2022-11-20T05:45:04.107Z,100.00
2022-11-20T05:47:35.204Z,100.00
2022-11-20T05:50:05.826Z,100.00
2022-11-20T05:52:34.327Z,100.00
2022-11-20T05:55:03.151Z,100.00
2022-11-20T05:57:33.322Z,100.00
2022-11-20T06:00:02.249Z,100.00
2022-11-20T06:02:33.179Z,100.00
2022-11-20T06:05:02.071Z,100.00
2022-11-20T06:07:32.036Z,100.00
2022-11-20T06:10:00.864Z,100.00
2022-11-20T06:12:29.679Z,100.00
2022-11-20T06:14:58.445Z,100.00
2022-11-20T06:17:27.243Z,100.00
2022-11-20T06:19:55.643Z,100.00
2022-11-20T06:22:24.677Z,100.00
2022-11-20T06:24:54.996Z,100.00
2022-11-20T06:27:23.936Z,100.00
2022-11-20T06:29:52.713Z,100.00
2022-11-20T06:32:21.501Z,100.00
2022-11-20T06:34:49.939Z,100.00
2022-11-20T06:37:18.798Z,100.00
2022-11-20T06:39:47.734Z,100.00
2022-11-20T06:42:17.988Z,100.00
2022-11-20T06:44:46.984Z,100.00
2022-11-20T06:47:17.120Z,100.00
2022-11-20T06:49:45.578Z,100.00
2022-11-20T06:52:14.438Z,100.00
2022-11-20T06:54:43.289Z,100.00
2022-11-20T06:57:12.092Z,100.00
2022-11-20T06:59:42.414Z,100.00
2022-11-20T07:02:12.659Z,100.00
2022-11-20T07:04:41.282Z,100.00
2022-11-20T07:07:11.240Z,100.00
2022-11-20T07:09:40.349Z,100.00
2022-11-20T07:12:09.236Z,100.00
2022-11-20T07:14:38.019Z,100.00
2022-11-20T07:17:08.246Z,100.00
2022-11-20T07:19:36.998Z,100.00
2022-11-20T07:22:06.849Z,100.00
2022-11-20T07:24:35.924Z,100.00
2022-11-20T07:27:05.115Z,100.00
2022-11-20T07:29:33.915Z,100.00
2022-11-20T07:32:02.703Z,100.00
2022-11-20T07:34:32.624Z,100.00
2022-11-20T07:37:04.830Z,100.00
2022-11-20T07:39:36.365Z,100.00
2022-11-20T07:42:05.353Z,100.00
2022-11-20T07:44:34.215Z,100.00
2022-11-20T07:47:03.214Z,100.00
2022-11-20T07:49:33.136Z,100.00
2022-11-20T07:52:04.648Z,100.00
2022-11-20T07:54:34.292Z,100.00
2022-11-20T07:57:03.071Z,100.00
2022-11-20T07:59:31.949Z,100.00
2022-11-20T08:02:00.910Z,100.00
2022-11-20T08:04:29.399Z,100.00
2022-11-20T08:06:59.698Z,100.00
2022-11-20T08:09:28.255Z,100.00
2022-11-20T08:12:14.482Z,100.00
2022-11-20T08:14:43.356Z,100.00
2022-11-20T08:17:12.255Z,100.00
2022-11-20T08:19:40.735Z,100.00
2022-11-20T08:22:10.988Z,97.32
2022-11-20T08:24:39.542Z,99.09
2022-11-20T08:27:08.445Z,99.54
2022-11-20T08:29:37.339Z,96.61
2022-11-20T08:32:06.611Z,99.40
2022-11-20T08:34:35.101Z,86.30
2022-11-20T08:37:04.339Z,80.09
2022-11-20T08:39:34.562Z,76.12
2022-11-20T08:42:03.497Z,88.73
2022-11-20T08:44:32.319Z,100.00
2022-11-20T08:47:01.153Z,100.00
2022-11-20T08:49:29.618Z,91.77
2022-11-20T08:51:59.498Z,92.26
2022-11-20T08:54:28.303Z,80.68
2022-11-20T08:56:58.638Z,66.96
2022-11-20T08:59:50.798Z,62.36
2022-11-20T09:02:16.444Z,51.42
2022-11-20T09:04:45.361Z,61.11
2022-11-20T09:07:14.524Z,64.84
2022-11-20T09:09:43.455Z,80.25
2022-11-20T09:12:13.832Z,83.95
2022-11-20T09:14:42.395Z,83.76
2022-11-20T09:17:14.493Z,74.78
2022-11-20T09:19:43.378Z,83.34
2022-11-20T09:22:12.466Z,76.61
2022-11-20T09:24:41.335Z,74.66
2022-11-20T09:27:10.121Z,77.03
2022-11-20T09:29:40.398Z,89.96
2022-11-20T09:32:09.376Z,87.22
2022-11-20T09:34:37.944Z,70.21
2022-11-20T09:37:07.926Z,58.33
2022-11-20T09:39:40.006Z,64.36
2022-11-20T09:42:30.321Z,62.35
2022-11-20T09:45:24.688Z,65.14
2022-11-20T09:48:06.475Z,76.58
2022-11-20T09:50:39.524Z,75.71
2022-11-20T09:53:17.447Z,86.61
2022-11-20T09:55:47.137Z,90.83
2022-11-20T09:58:30.471Z,83.52
2022-11-20T10:01:03.270Z,88.31
2022-11-20T10:03:41.022Z,91.34
2022-11-20T10:06:15.192Z,80.72
2022-11-20T10:08:46.790Z,81.16
2022-11-20T10:11:19.006Z,89.06
2022-11-20T10:13:57.490Z,80.39
2022-11-20T10:16:42.219Z,78.28
2022-11-20T10:19:25.472Z,79.76
2022-11-20T10:21:59.536Z,74.36
2022-11-20T10:24:47.394Z,52.65
2022-11-20T10:27:43.194Z,50.22
2022-11-20T10:30:14.027Z,54.67
2022-11-20T10:32:46.293Z,48.75
2022-11-20T10:35:23.094Z,40.34
2022-11-20T10:37:53.920Z,56.33
2022-11-20T10:40:26.208Z,81.36
2022-11-20T10:42:58.778Z,84.94
2022-11-20T10:45:39.818Z,64.41
2022-11-20T10:48:16.895Z,79.47
2022-11-20T10:50:57.926Z,86.84
2022-11-20T10:53:38.797Z,70.62
2022-11-20T10:56:10.075Z,64.58
2022-11-20T10:58:44.888Z,64.04
2022-11-20T11:01:17.947Z,58.01
2022-11-20T11:03:48.398Z,57.48
2022-11-20T11:06:17.925Z,49.69
2022-11-20T11:08:47.676Z,57.24
2022-11-20T11:11:23.591Z,58.81
2022-11-20T11:13:52.662Z,51.00
2022-11-20T11:16:25.871Z,46.45
2022-11-20T11:19:06.567Z,44.02
2022-11-20T11:21:36.919Z,35.09
2022-11-20T11:24:34.892Z,44.55
2022-11-20T11:26:59.772Z,41.82
2022-11-20T11:29:30.617Z,39.11
2022-11-20T11:32:07.868Z,50.70
2022-11-20T11:34:38.315Z,49.65
2022-11-20T11:37:07.560Z,43.83
2022-11-20T11:39:36.950Z,47.29
2022-11-20T11:42:06.030Z,41.66
2022-11-20T11:44:53.615Z,63.26
2022-11-20T11:47:26.455Z,53.43
2022-11-20T11:50:11.693Z,62.12
2022-11-20T11:52:45.249Z,63.02
2022-11-20T11:55:17.693Z,56.62
2022-11-20T11:57:51.705Z,67.39
2022-11-20T12:00:22.126Z,76.51
2022-11-20T12:02:54.920Z,89.91
2022-11-20T12:05:27.387Z,92.64
2022-11-20T12:07:59.835Z,84.64
2022-11-20T12:10:42.231Z,71.74
2022-11-20T12:13:20.948Z,70.10
2022-11-20T12:15:50.044Z,71.40
2022-11-20T12:18:21.597Z,70.48
2022-11-20T12:20:59.391Z,72.50
2022-11-20T12:23:33.104Z,100.00
2022-11-20T12:26:07.524Z,100.00
2022-11-20T12:28:50.093Z,100.00
2022-11-20T12:31:40.460Z,100.00
2022-11-20T12:34:26.128Z,100.00
2022-11-20T12:37:02.384Z,100.00
2022-11-20T12:39:37.798Z,100.00
2022-11-20T12:42:40.711Z,100.00
2022-11-20T12:45:33.258Z,100.00
2022-11-20T12:48:13.965Z,100.00
2022-11-20T12:51:13.913Z,100.00
2022-11-20T12:53:48.196Z,100.00
2022-11-20T12:56:27.086Z,100.00
2022-11-20T12:59:02.350Z,100.00
2022-11-20T13:01:45.296Z,100.00
2022-11-20T13:04:28.131Z,100.00
2022-11-20T13:06:57.753Z,100.00
2022-11-20T13:09:28.601Z,100.00
2022-11-20T13:12:04.872Z,100.00
2022-11-20T13:14:38.699Z,100.00
2022-11-20T13:17:09.768Z,100.00
2022-11-20T13:19:38.615Z,100.00
2022-11-20T13:22:07.562Z,100.00
2022-11-20T13:24:38.177Z,100.00
2022-11-20T13:27:22.293Z,100.00
2022-11-20T13:30:03.417Z,100.00
2022-11-20T13:32:33.535Z,100.00
2022-11-20T13:35:05.510Z,100.00
2022-11-20T13:37:35.631Z,100.00
2022-11-20T13:40:24.283Z,100.00
2022-11-20T13:43:05.079Z,100.00
2022-11-20T13:45:35.221Z,100.00
2022-11-20T13:48:07.171Z,100.00
2022-11-20T13:50:46.708Z,100.00
2022-11-20T13:53:27.941Z,100.00
2022-11-20T13:56:03.308Z,100.00
2022-11-20T13:58:43.166Z,100.00
2022-11-20T14:01:13.900Z,100.00
2022-11-20T14:06:33.652Z,100.00
2022-11-20T14:09:02.836Z,100.00
2022-11-20T14:11:34.517Z,100.00
2022-11-20T14:14:05.433Z,100.00
2022-11-20T14:16:36.154Z,100.00
2022-11-20T14:19:31.503Z,100.00
2022-11-20T14:22:12.793Z,100.00
2022-11-20T14:24:41.667Z,100.00
2022-11-20T14:27:17.254Z,100.00
2022-11-20T14:29:47.960Z,100.00
2022-11-20T14:32:18.801Z,100.00
2022-11-20T14:34:48.916Z,100.00
2022-11-20T14:37:24.171Z,100.00
2022-11-20T14:39:54.899Z,100.00
2022-11-20T14:42:27.574Z,100.00
2022-11-20T14:44:58.629Z,100.00
2022-11-20T14:47:29.055Z,100.00
2022-11-20T14:49:58.146Z,100.00
2022-11-20T14:52:28.002Z,100.00
2022-11-20T14:55:00.520Z,100.00
2022-11-20T14:57:32.074Z,100.00
2022-11-20T15:00:21.908Z,100.00
2022-11-20T15:02:51.703Z,100.00
2022-11-20T15:05:22.050Z,100.00
2022-11-20T15:07:52.444Z,100.00
2022-11-20T15:10:25.916Z,100.00
2022-11-20T15:12:58.139Z,100.00
2022-11-20T15:15:30.460Z,100.00
2022-11-20T15:17:59.865Z,100.00
2022-11-20T15:20:31.108Z,100.00
2022-11-20T15:23:00.058Z,100.00
2022-11-20T15:25:29.316Z,100.00
2022-11-20T15:27:59.777Z,100.00
2022-11-20T15:30:28.636Z,100.00
2022-11-20T15:32:57.846Z,100.00
2022-11-20T15:35:26.774Z,100.00
2022-11-20T15:37:55.251Z,100.00
2022-11-20T15:40:24.177Z,100.00
2022-11-20T15:43:11.332Z,100.00
2022-11-20T15:45:45.893Z,100.00
2022-11-20T15:48:16.919Z,100.00
2022-11-20T15:50:53.692Z,100.00
2022-11-20T15:53:22.691Z,100.00
2022-11-20T15:55:51.343Z,100.00
2022-11-20T15:58:20.257Z,100.00
2022-11-20T16:00:50.556Z,100.00
2022-11-20T16:03:19.269Z,100.00
2022-11-20T16:05:48.224Z,100.00
2022-11-20T16:08:17.380Z,100.00
2022-11-20T16:10:46.266Z,100.00
2022-11-20T16:13:34.402Z,100.00
2022-11-20T16:16:07.263Z,100.00
2022-11-20T16:18:36.319Z,100.00
2022-11-20T16:21:06.897Z,100.00
2022-11-20T16:23:37.243Z,100.00
2022-11-20T16:26:12.071Z,100.00
2022-11-20T16:28:40.685Z,100.00
2022-11-20T16:31:15.055Z,100.00
2022-11-20T16:33:43.995Z,100.00
2022-11-20T16:36:13.846Z,100.00
2022-11-20T16:38:42.799Z,100.00
2022-11-20T16:41:14.564Z,100.00
2022-11-20T16:43:48.027Z,100.00
2022-11-20T16:46:18.712Z,100.00
2022-11-20T16:48:47.732Z,100.00
2022-11-20T16:51:16.528Z,100.00
2022-11-20T16:53:45.523Z,100.00
2022-11-20T16:56:16.202Z,100.00
2022-11-20T16:58:44.874Z,100.00
2022-11-20T17:01:15.352Z,100.00
2022-11-20T17:03:46.571Z,100.00
2022-11-20T17:06:16.471Z,100.00
2022-11-20T17:08:45.635Z,100.00
2022-11-20T17:11:19.827Z,100.00
2022-11-20T17:13:50.126Z,100.00
2022-11-20T17:16:20.394Z,100.00
2022-11-20T17:18:51.198Z,100.00
2022-11-20T17:21:20.963Z,100.00
2022-11-20T17:23:49.998Z,100.00
2022-11-20T17:26:21.867Z,100.00
2022-11-20T17:28:55.184Z,100.00
2022-11-20T17:31:24.888Z,100.00
2022-11-20T17:33:55.187Z,100.00
2022-11-20T17:36:24.487Z,100.00
2022-11-20T17:38:53.446Z,100.00
2022-11-20T17:41:25.318Z,100.00
2022-11-20T17:43:56.148Z,100.00
2022-11-20T17:46:26.355Z,100.00
2022-11-20T17:48:56.450Z,100.00
2022-11-20T17:51:27.056Z,100.00
2022-11-20T17:53:57.531Z,100.00
2022-11-20T17:56:44.562Z,100.00
2022-11-20T17:59:14.277Z,100.00
2022-11-20T18:01:44.362Z,100.00
2022-11-20T18:04:14.503Z,100.00
2022-11-20T18:06:44.071Z,100.00
2022-11-20T18:09:13.117Z,100.00
2022-11-20T18:11:43.368Z,100.00
2022-11-20T18:14:32.823Z,100.00
2022-11-20T18:17:03.532Z,100.00
2022-11-20T18:19:40.278Z,100.00
2022-11-20T18:22:14.360Z,100.00
2022-11-20T18:24:43.502Z,100.00
2022-11-20T18:27:16.963Z,100.00
2022-11-20T18:29:48.569Z,100.00
2022-11-20T18:32:17.606Z,100.00
2022-11-20T18:34:47.588Z,100.00
2022-11-20T18:37:16.742Z,100.00
2022-11-20T18:39:45.989Z,100.00
2022-11-20T18:42:34.115Z,100.00
2022-11-20T18:45:04.574Z,100.00
2022-11-20T18:47:37.655Z,100.00
2022-11-20T18:50:09.780Z,100.00
2022-11-20T18:52:41.908Z,100.00
2022-11-20T18:55:12.117Z,100.00
2022-11-20T18:57:40.730Z,100.00
2022-11-20T19:00:10.831Z,100.00
2022-11-20T19:02:42.744Z,100.00
2022-11-20T19:05:15.262Z,100.00
2022-11-20T19:07:44.416Z,100.00
2022-11-20T19:10:13.338Z,100.00
2022-11-20T19:12:42.212Z,100.00
2022-11-20T19:15:11.846Z,100.00
2022-11-20T19:17:40.887Z,100.00
2022-11-20T19:20:10.349Z,100.00
2022-11-20T19:22:40.386Z,100.00
2022-11-20T19:25:10.088Z,100.00
2022-11-20T19:27:39.177Z,100.00
2022-11-20T19:30:09.008Z,100.00
2022-11-20T19:32:38.075Z,100.00
2022-11-20T19:35:07.776Z,100.00
2022-11-20T19:37:36.473Z,100.00
2022-11-20T19:40:07.911Z,100.00
2022-11-20T19:42:36.771Z,100.00
2022-11-20T19:45:06.320Z,100.00
2022-11-20T19:48:01.004Z,100.00
2022-11-20T19:50:23.993Z,100.00
2022-11-20T19:52:58.349Z,100.00
2022-11-20T19:55:29.265Z,100.00
2022-11-20T19:57:58.203Z,100.00
2022-11-20T20:00:32.421Z,100.00
2022-11-20T20:03:02.022Z,100.00
2022-11-20T20:05:30.938Z,100.00
2022-11-20T20:07:59.891Z,100.00
2022-11-20T20:10:30.428Z,100.00
2022-11-20T20:12:59.482Z,100.00
2022-11-20T20:15:28.380Z,100.00
2022-11-20T20:17:57.331Z,100.00
2022-11-20T20:20:26.364Z,100.00
2022-11-20T20:22:54.955Z,100.00
2022-11-20T20:25:23.810Z,100.00
2022-11-20T20:27:54.603Z,100.00
2022-11-20T20:30:23.647Z,100.00
2022-11-20T20:32:56.272Z,100.00
2022-11-20T20:35:25.536Z,100.00
2022-11-20T20:37:54.226Z,100.00
2022-11-20T20:40:23.116Z,100.00
2022-11-20T20:42:53.536Z,100.00
2022-11-20T20:45:22.537Z,100.00
2022-11-20T20:47:51.382Z,100.00
2022-11-20T20:50:20.846Z,100.00
2022-11-20T20:52:49.634Z,100.00
2022-11-20T20:55:18.672Z,100.00
2022-11-20T20:57:47.596Z,100.00
2022-11-20T21:00:19.530Z,100.00
2022-11-20T21:02:48.488Z,100.00
2022-11-20T21:05:17.551Z,100.00
2022-11-20T21:07:59.821Z,100.00
2022-11-20T21:10:30.564Z,100.00
2022-11-20T21:12:59.445Z,100.00
2022-11-20T21:15:29.866Z,100.00
2022-11-20T21:17:58.379Z,100.00
2022-11-20T21:20:44.476Z,100.00
2022-11-20T21:23:13.020Z,100.00
2022-11-20T21:25:41.924Z,100.00
2022-11-20T21:28:14.352Z,100.00
2022-11-20T21:30:48.736Z,100.00
2022-11-20T21:33:17.585Z,100.00
2022-11-20T21:35:46.505Z,100.00
2022-11-20T21:38:15.335Z,100.00
2022-11-20T21:40:43.818Z,100.00
2022-11-20T21:43:12.727Z,100.00
2022-11-20T21:45:41.590Z,100.00
2022-11-20T21:48:11.924Z,100.00
2022-11-20T21:50:40.403Z,100.00
2022-11-20T21:53:09.256Z,100.00
2022-11-20T21:55:37.909Z,100.00
2022-11-20T21:58:06.701Z,100.00
2022-11-20T22:00:35.543Z,100.00
2022-11-20T22:03:04.335Z,100.00
2022-11-20T22:05:34.639Z,100.00
2022-11-20T22:08:03.492Z,100.00
2022-11-20T22:10:31.930Z,100.00
2022-11-20T22:13:14.597Z,100.00
2022-11-20T22:15:59.817Z,100.00
2022-11-20T22:18:29.798Z,100.00
2022-11-20T22:21:05.071Z,100.00
2022-11-20T22:23:33.970Z,100.00
2022-11-20T22:26:04.669Z,100.00
2022-11-20T22:28:33.353Z,100.00
2022-11-20T22:31:02.735Z,100.00
2022-11-20T22:33:32.975Z,100.00
2022-11-20T22:36:03.504Z,100.00
2022-11-20T22:38:37.837Z,100.00
2022-11-20T22:41:09.467Z,100.00
2022-11-20T22:43:38.176Z,100.00
2022-11-20T22:46:08.593Z,100.00
2022-11-20T22:48:38.553Z,100.00
2022-11-20T22:51:09.741Z,100.00
2022-11-20T22:53:38.616Z,100.00
2022-11-20T22:56:08.353Z,100.00
2022-11-20T22:58:37.761Z,100.00
2022-11-20T23:01:10.889Z,100.00
2022-11-20T23:03:40.848Z,100.00
2022-11-20T23:06:11.685Z,100.00
2022-11-20T23:08:41.600Z,100.00
2022-11-20T23:11:12.630Z,100.00
2022-11-20T23:13:41.686Z,100.00
2022-11-20T23:16:12.582Z,100.00
2022-11-20T23:18:41.974Z,100.00
2022-11-20T23:21:13.952Z,100.00
2022-11-20T23:23:43.489Z,100.00
2022-11-20T23:26:13.434Z,100.00
2022-11-20T23:28:43.017Z,100.00
2022-11-20T23:31:12.159Z,100.00
2022-11-20T23:33:42.801Z,100.00
2022-11-20T23:36:13.600Z,100.00
2022-11-20T23:38:42.424Z,100.00
2022-11-20T23:41:11.724Z,100.00
2022-11-20T23:43:40.410Z,100.00
2022-11-20T23:46:13.712Z,100.00
2022-11-20T23:48:46.048Z,100.00
2022-11-20T23:51:16.774Z,100.00
2022-11-20T23:53:45.837Z,100.00
2022-11-20T23:56:15.352Z,100.00
2022-11-20T23:58:43.892Z,100.00
